Time;durP1;ratioP1;P1;durP2;ratioP2;P2;SDS_P1;SDS_P2;PMS_P1;PMS_P2;Temp;Humidity;BMP_temperature;BMP_pressure;BME280_temperature;BME280_humidity;BME280_pressure;Samples;Min_cycle;Max_cycle;Signal;HPM_P1;HPM_P2
2023/07/27 00:00:13;;;;;;;12.02;7.53;;;15.00;99.90;;;;;;5058100;28;20058;-82
2023/07/27 00:02:42;;;;;;;13.13;7.47;;;14.90;99.90;;;;;;5053126;28;20323;-82
2023/07/27 00:05:08;;;;;;;13.38;7.60;;;14.90;99.90;;;;;;5060531;28;20458;-81
2023/07/27 00:07:34;;;;;;;12.00;7.97;;;15.00;99.90;;;;;;5044947;28;20328;-82
2023/07/27 00:10:00;;;;;;;12.25;7.88;;;14.90;99.90;;;;;;5044560;28;20032;-83
2023/07/27 00:12:26;;;;;;;12.43;7.57;;;14.90;99.90;;;;;;5060239;28;20024;-81
2023/07/27 00:14:52;;;;;;;12.13;8.00;;;14.80;99.90;;;;;;5044201;28;20305;-83
2023/07/27 00:17:18;;;;;;;16.20;7.97;;;14.80;99.90;;;;;;5036761;28;20059;-81
2023/07/27 00:19:44;;;;;;;13.85;8.35;;;14.80;99.90;;;;;;5044017;28;20479;-82
2023/07/27 00:22:10;;;;;;;14.05;8.55;;;14.80;99.90;;;;;;5027537;28;20163;-82
2023/07/27 00:24:36;;;;;;;13.45;8.18;;;14.80;99.90;;;;;;5062423;28;20119;-81
2023/07/27 00:27:02;;;;;;;12.13;7.78;;;14.80;99.90;;;;;;5047387;28;20105;-84
2023/07/27 00:29:28;;;;;;;12.20;7.85;;;14.80;99.90;;;;;;5047507;28;20042;-82
2023/07/27 00:31:54;;;;;;;11.25;7.05;;;14.80;99.90;;;;;;5031080;28;20036;-81
2023/07/27 00:34:20;;;;;;;10.73;7.43;;;14.80;99.90;;;;;;5078502;28;20040;-82
2023/07/27 00:36:50;;;;;;;11.70;7.93;;;14.80;99.90;;;;;;5063987;28;20047;-82
2023/07/27 00:39:16;;;;;;;11.60;7.50;;;14.80;99.90;;;;;;5064060;28;20043;-81
2023/07/27 00:41:43;;;;;;;11.25;7.40;;;14.80;99.90;;;;;;5047568;28;20067;-81
2023/07/27 00:44:09;;;;;;;11.55;7.47;;;14.70;99.90;;;;;;5030338;28;20024;-82
2023/07/27 00:46:36;;;;;;;11.15;7.57;;;14.70;99.90;;;;;;5064064;28;20024;-81
2023/07/27 00:49:03;;;;;;;12.27;7.65;;;14.70;99.90;;;;;;5047054;28;20036;-82
2023/07/27 00:51:35;;;;;;;10.82;7.70;;;14.70;99.90;;;;;;5080518;28;20127;-82
2023/07/27 00:54:07;;;;;;;10.30;7.10;;;14.70;99.90;;;;;;5098128;28;20067;-81
2023/07/27 00:56:37;;;;;;;10.40;6.80;;;14.60;99.90;;;;;;5075914;28;20104;-81
2023/07/27 00:59:03;;;;;;;10.82;7.10;;;14.60;99.90;;;;;;5044126;28;20028;-81
2023/07/27 01:01:30;;;;;;;11.65;7.15;;;14.60;99.90;;;;;;5059712;28;20439;-81
2023/07/27 01:03:56;;;;;;;11.02;7.43;;;14.60;99.90;;;;;;5027047;28;20075;-82
2023/07/27 01:06:25;;;;;;;12.55;7.38;;;14.70;99.90;;;;;;5056389;28;20032;-81
2023/07/27 01:08:52;;;;;;;9.98;6.95;;;14.60;99.90;;;;;;5063330;28;20092;-81
2023/07/27 01:11:32;;;;;;;11.10;7.38;;;14.70;99.90;;;;;;5045205;28;20365;-82
2023/07/27 01:14:01;;;;;;;9.73;6.45;;;14.70;99.90;;;;;;5080576;28;20085;-81
2023/07/27 01:16:33;;;;;;;12.32;7.07;;;14.60;99.90;;;;;;5060980;28;20075;-81
2023/07/27 01:19:29;;;;;;;13.88;7.07;;;14.60;99.90;;;;;;5079557;28;20032;-83
2023/07/27 01:22:07;;;;;;;11.73;6.70;;;14.60;99.90;;;;;;5043300;28;20042;-81
2023/07/27 01:24:48;;;;;;;10.68;6.68;;;14.60;99.90;;;;;;5076613;28;20024;-81
2023/07/27 01:27:20;;;;;;;10.90;6.80;;;14.50;99.90;;;;;;5044264;28;20063;-82
2023/07/27 01:30:06;;;;;;;11.15;6.88;;;14.50;99.90;;;;;;5043136;28;20036;-82
2023/07/27 01:32:35;;;;;;;10.82;6.78;;;14.50;99.90;;;;;;5059574;28;20032;-81
2023/07/27 01:35:03;;;;;;;9.70;6.68;;;14.50;99.90;;;;;;5059207;28;20035;-82
2023/07/27 01:37:30;;;;;;;10.38;6.30;;;14.50;99.90;;;;;;5027942;28;20461;-82
2023/07/27 01:39:58;;;;;;;11.40;6.75;;;14.50;99.90;;;;;;5042808;28;20032;-81
2023/07/27 01:42:26;;;;;;;9.77;6.70;;;14.50;99.90;;;;;;5026203;28;20036;-81
2023/07/27 01:44:53;;;;;;;9.95;6.32;;;14.50;99.90;;;;;;5042546;28;20025;-81
2023/07/27 01:47:21;;;;;;;9.13;6.43;;;14.50;99.90;;;;;;5046016;28;20024;-82
2023/07/27 01:49:48;;;;;;;10.98;6.55;;;14.50;99.90;;;;;;5046128;28;20055;-82
2023/07/27 01:52:16;;;;;;;9.82;6.65;;;14.50;99.90;;;;;;5046064;28;20047;-82
2023/07/27 01:54:43;;;;;;;9.82;6.47;;;14.50;99.90;;;;;;5046174;28;20052;-81
2023/07/27 01:57:10;;;;;;;10.52;6.28;;;14.50;99.90;;;;;;5046196;28;20036;-81
2023/07/27 01:59:38;;;;;;;10.40;6.38;;;14.50;99.90;;;;;;5044490;28;20062;-81
2023/07/27 02:02:05;;;;;;;10.70;6.30;;;14.50;99.90;;;;;;5062018;28;20028;-81
2023/07/27 02:04:32;;;;;;;11.75;7.15;;;14.60;99.90;;;;;;5061746;28;20505;-81
2023/07/27 02:06:58;;;;;;;10.48;6.75;;;14.60;99.90;;;;;;5046049;28;20150;-81
2023/07/27 02:09:25;;;;;;;10.30;6.38;;;14.60;99.90;;;;;;5060916;28;20187;-82
2023/07/27 02:11:57;;;;;;;12.30;6.35;;;14.60;99.90;;;;;;5062376;28;20044;-82
2023/07/27 02:14:31;;;;;;;10.65;6.63;;;14.60;99.90;;;;;;5045640;28;20072;-81
2023/07/27 02:17:11;;;;;;;10.88;6.85;;;14.50;99.90;;;;;;5078408;28;20032;-81
2023/07/27 02:19:39;;;;;;;10.47;6.53;;;14.60;99.90;;;;;;5067921;28;20082;-81
2023/07/27 02:22:08;;;;;;;10.63;6.20;;;14.50;99.90;;;;;;5058553;28;20028;-81
2023/07/27 02:24:34;;;;;;;10.32;6.28;;;14.50;99.90;;;;;;5025586;28;20037;-81
2023/07/27 02:27:00;;;;;;;10.65;6.10;;;14.60;99.90;;;;;;5025869;28;20058;-81
2023/07/27 02:29:26;;;;;;;10.60;6.30;;;14.60;99.90;;;;;;5029831;28;20115;-82
2023/07/27 02:31:52;;;;;;;11.73;6.60;;;14.50;99.90;;;;;;5028479;28;20122;-81
2023/07/27 02:34:19;;;;;;;10.70;6.75;;;14.60;99.90;;;;;;5044728;28;20040;-81
2023/07/27 02:36:45;;;;;;;12.57;6.93;;;14.60;99.90;;;;;;5062054;28;20334;-82
2023/07/27 02:39:11;;;;;;;11.48;7.00;;;14.50;99.90;;;;;;5061663;28;20028;-82
2023/07/27 02:41:37;;;;;;;11.20;6.70;;;14.60;99.90;;;;;;5052907;28;20028;-81
2023/07/27 02:44:07;;;;;;;10.15;6.70;;;14.60;99.90;;;;;;5029979;28;20036;-81
2023/07/27 02:46:34;;;;;;;11.77;6.30;;;14.60;99.90;;;;;;5077740;28;20020;-82
2023/07/27 02:49:00;;;;;;;10.93;6.35;;;14.60;99.90;;;;;;5028460;28;20427;-82
2023/07/27 02:51:26;;;;;;;9.52;6.90;;;14.60;99.90;;;;;;5030067;28;20067;-81
2023/07/27 02:53:57;;;;;;;9.77;6.40;;;14.60;99.90;;;;;;5042332;28;20404;-82
2023/07/27 02:56:27;;;;;;;12.02;6.68;;;14.60;99.90;;;;;;5025601;28;20419;-81
2023/07/27 02:58:53;;;;;;;9.85;6.18;;;14.60;99.90;;;;;;5041561;28;20031;-81
2023/07/27 03:01:20;;;;;;;8.48;6.15;;;14.60;99.90;;;;;;5041859;28;20419;-82
2023/07/27 03:03:52;;;;;;;10.95;7.18;;;14.60;99.90;;;;;;5025831;28;20062;-82
2023/07/27 03:06:18;;;;;;;9.27;6.78;;;14.60;99.90;;;;;;5024721;28;20127;-84
2023/07/27 03:08:51;;;;;;;10.35;6.65;;;14.60;99.90;;;;;;5026834;28;20105;-82
2023/07/27 03:11:17;;;;;;;11.02;6.63;;;14.60;99.90;;;;;;5058947;28;20052;-82
2023/07/27 03:13:43;;;;;;;11.63;7.32;;;14.60;99.90;;;;;;5030479;28;20035;-81
2023/07/27 03:16:08;;;;;;;11.60;7.20;;;14.60;99.90;;;;;;5060361;28;20433;-81
2023/07/27 03:18:34;;;;;;;13.40;7.60;;;14.60;99.90;;;;;;5044530;28;20036;-82
2023/07/27 03:21:04;;;;;;;13.98;7.88;;;14.60;99.90;;;;;;5045413;28;20269;-81
2023/07/27 03:23:31;;;;;;;10.95;6.95;;;14.70;99.90;;;;;;5094882;28;20093;-82
2023/07/27 03:25:57;;;;;;;12.82;7.38;;;14.60;99.90;;;;;;5061091;28;20046;-81
2023/07/27 03:28:23;;;;;;;10.25;7.15;;;14.60;99.90;;;;;;5044236;28;20423;-82
2023/07/27 03:30:49;;;;;;;11.95;7.13;;;14.60;99.90;;;;;;5041994;28;20057;-82
2023/07/27 03:33:15;;;;;;;12.70;7.80;;;14.60;99.90;;;;;;5060881;28;20373;-81
2023/07/27 03:35:41;;;;;;;12.18;7.93;;;14.60;99.90;;;;;;5043098;28;20058;-82
2023/07/27 03:38:07;;;;;;;14.45;8.05;;;14.60;99.90;;;;;;5044398;28;20431;-82
2023/07/27 03:40:33;;;;;;;15.73;7.60;;;14.60;99.90;;;;;;5060701;28;20081;-82
2023/07/27 03:42:59;;;;;;;13.45;7.63;;;14.60;99.90;;;;;;5044074;28;20035;-82
2023/07/27 03:45:25;;;;;;;13.27;7.90;;;14.60;99.90;;;;;;5043519;28;20423;-82
2023/07/27 03:47:51;;;;;;;15.07;7.68;;;14.60;99.90;;;;;;5060645;28;20089;-82
2023/07/27 03:50:17;;;;;;;13.13;7.55;;;14.60;99.90;;;;;;5042689;28;20032;-83
2023/07/27 03:52:44;;;;;;;12.10;8.23;;;14.60;99.90;;;;;;5040962;28;20043;-82
2023/07/27 03:55:12;;;;;;;14.43;8.18;;;14.60;99.90;;;;;;5024367;28;20048;-82
2023/07/27 03:57:39;;;;;;;11.25;8.10;;;14.60;99.90;;;;;;5024312;28;20106;-82
2023/07/27 04:00:06;;;;;;;11.75;8.23;;;14.60;99.90;;;;;;5012120;28;20032;-82
2023/07/27 04:02:40;;;;;;;14.15;8.13;;;14.60;99.90;;;;;;5061162;28;20113;-82
2023/07/27 04:05:06;;;;;;;13.38;8.88;;;14.70;99.90;;;;;;5054767;28;20052;-82
2023/07/27 04:07:32;;;;;;;12.63;8.48;;;14.60;99.90;;;;;;5040658;28;20484;-83
2023/07/27 04:09:58;;;;;;;16.58;9.32;;;14.70;99.90;;;;;;5040489;28;20059;-82
2023/07/27 04:12:24;;;;;;;14.30;9.73;;;14.70;99.90;;;;;;5024637;28;20032;-82
2023/07/27 04:14:51;;;;;;;14.27;9.18;;;14.70;99.90;;;;;;5040374;28;20050;-83
2023/07/27 04:17:16;;;;;;;14.27;9.48;;;14.70;99.90;;;;;;5047574;28;20039;-83
2023/07/27 04:19:42;;;;;;;15.52;9.80;;;14.70;99.90;;;;;;5007142;28;20423;-83
2023/07/27 04:22:08;;;;;;;16.70;9.23;;;14.70;99.90;;;;;;5040435;28;20036;-82
2023/07/27 04:24:34;;;;;;;16.02;9.07;;;14.70;99.90;;;;;;5056704;28;20101;-83
2023/07/27 04:27:00;;;;;;;16.95;9.27;;;14.70;99.90;;;;;;5053978;28;20462;-82
2023/07/27 04:29:26;;;;;;;15.52;10.38;;;14.70;99.90;;;;;;5043947;28;20087;-83
2023/07/27 04:31:52;;;;;;;17.40;9.82;;;14.70;99.90;;;;;;5043359;28;20035;-83
2023/07/27 04:34:18;;;;;;;14.38;9.65;;;14.70;99.90;;;;;;5027146;28;20226;-82
2023/07/27 04:36:47;;;;;;;15.27;9.77;;;14.70;99.90;;;;;;5043707;28;20070;-82
2023/07/27 04:39:14;;;;;;;18.02;10.32;;;14.70;99.90;;;;;;5040393;28;20062;-83
2023/07/27 04:41:40;;;;;;;15.13;9.75;;;14.70;99.90;;;;;;5056584;28;20032;-83
2023/07/27 04:44:06;;;;;;;16.42;10.07;;;14.70;99.90;;;;;;5023847;28;20024;-82
2023/07/27 04:46:31;;;;;;;17.30;11.30;;;14.70;99.90;;;;;;5026183;28;20043;-83
2023/07/27 04:48:57;;;;;;;21.00;11.68;;;14.70;99.90;;;;;;5071531;28;20039;-83
2023/07/27 04:51:23;;;;;;;18.52;10.60;;;14.70;99.90;;;;;;5048974;28;20028;-82
2023/07/27 04:53:49;;;;;;;16.88;11.15;;;14.60;99.90;;;;;;5027172;28;20423;-82
2023/07/27 04:56:15;;;;;;;14.75;9.65;;;14.70;99.90;;;;;;5028575;28;20043;-82
2023/07/27 04:58:41;;;;;;;19.02;11.27;;;14.70;99.90;;;;;;5027091;28;20086;-82
2023/07/27 05:01:07;;;;;;;19.23;11.32;;;14.60;99.90;;;;;;5028970;28;20030;-82
2023/07/27 05:03:33;;;;;;;18.15;10.13;;;14.60;99.90;;;;;;5026957;28;20035;-83
2023/07/27 05:05:59;;;;;;;17.02;10.98;;;14.60;99.90;;;;;;5043405;28;20420;-82
2023/07/27 05:08:25;;;;;;;15.85;10.20;;;14.60;99.90;;;;;;5027291;28;20033;-82
2023/07/27 05:10:50;;;;;;;16.38;10.43;;;14.60;99.90;;;;;;5040662;28;20128;-83
2023/07/27 05:13:16;;;;;;;15.73;11.23;;;14.60;99.90;;;;;;5060487;28;20412;-82
2023/07/27 05:15:44;;;;;;;19.25;11.95;;;14.60;99.90;;;;;;5008707;28;20427;-82
2023/07/27 05:18:10;;;;;;;17.30;11.48;;;14.60;99.90;;;;;;5063163;28;20099;-82
2023/07/27 05:20:36;;;;;;;19.95;11.60;;;14.60;99.90;;;;;;5079612;28;20036;-82
2023/07/27 05:23:02;;;;;;;16.75;11.27;;;14.60;99.90;;;;;;5047457;28;20040;-82
2023/07/27 05:25:28;;;;;;;19.60;12.07;;;14.60;99.90;;;;;;5026768;28;20033;-82
2023/07/27 05:27:54;;;;;;;17.40;11.68;;;14.60;99.90;;;;;;5077304;28;20415;-82
2023/07/27 05:30:20;;;;;;;17.65;11.45;;;14.60;99.90;;;;;;5026393;28;20313;-82
2023/07/27 05:32:45;;;;;;;17.75;11.77;;;14.70;99.90;;;;;;5049996;28;20496;-82
2023/07/27 05:35:11;;;;;;;18.88;11.23;;;14.70;99.90;;;;;;5042970;28;20343;-82
2023/07/27 05:37:37;;;;;;;14.75;10.80;;;14.60;99.90;;;;;;5026548;28;20127;-83
2023/07/27 05:40:04;;;;;;;16.10;11.60;;;14.60;99.90;;;;;;5017129;28;20174;-82
2023/07/27 05:42:30;;;;;;;16.55;11.13;;;14.70;99.90;;;;;;5060283;28;20105;-82
2023/07/27 05:44:56;;;;;;;19.10;11.65;;;14.60;99.90;;;;;;5062213;28;20139;-83
2023/07/27 05:47:22;;;;;;;16.95;11.48;;;14.70;99.90;;;;;;5062769;28;20323;-82
2023/07/27 05:49:48;;;;;;;16.83;10.57;;;14.60;99.90;;;;;;5026888;28;20741;-83
2023/07/27 05:52:14;;;;;;;15.13;10.90;;;14.70;99.90;;;;;;5021708;28;20373;-83
2023/07/27 05:54:40;;;;;;;14.93;10.77;;;14.60;99.90;;;;;;5024708;28;20143;-83
2023/07/27 05:57:06;;;;;;;15.07;10.43;;;14.60;99.90;;;;;;5023163;28;20050;-84
2023/07/27 05:59:32;;;;;;;15.50;10.52;;;14.70;99.90;;;;;;5039316;28;20064;-83
2023/07/27 06:01:58;;;;;;;17.25;10.60;;;14.70;99.90;;;;;;5038992;28;20151;-83
2023/07/27 06:04:25;;;;;;;18.50;10.98;;;14.70;99.90;;;;;;5006392;28;20270;-84
2023/07/27 06:06:53;;;;;;;15.70;10.93;;;14.60;99.90;;;;;;5045235;28;20082;-84
2023/07/27 06:09:19;;;;;;;14.32;10.25;;;14.70;99.90;;;;;;5043244;28;20035;-84
2023/07/27 06:11:45;;;;;;;15.25;10.63;;;14.70;99.90;;;;;;5059538;28;20339;-83
2023/07/27 06:14:11;;;;;;;13.60;9.60;;;14.70;99.90;;;;;;5059398;28;20036;-83
2023/07/27 06:16:37;;;;;;;13.38;9.82;;;14.70;99.90;;;;;;5059190;28;20046;-84
2023/07/27 06:19:02;;;;;;;14.43;9.75;;;14.70;99.90;;;;;;5058292;28;20047;-83
2023/07/27 06:21:28;;;;;;;15.55;10.13;;;14.60;99.90;;;;;;5042793;28;20062;-84
2023/07/27 06:23:54;;;;;;;15.30;9.45;;;14.60;99.90;;;;;;5042889;28;20028;-84
2023/07/27 06:26:20;;;;;;;13.35;9.18;;;14.60;99.90;;;;;;5043080;28;20126;-83
2023/07/27 06:28:46;;;;;;;13.57;9.50;;;14.60;99.90;;;;;;5039672;28;20135;-84
2023/07/27 06:31:12;;;;;;;12.18;8.60;;;14.70;99.90;;;;;;5055829;28;20032;-84
2023/07/27 06:33:38;;;;;;;13.07;9.15;;;14.70;99.90;;;;;;4990941;28;20723;-83
2023/07/27 06:36:07;;;;;;;14.98;9.68;;;14.70;99.90;;;;;;5040033;28;20647;-83
2023/07/27 06:38:33;;;;;;;12.93;8.80;;;14.80;99.90;;;;;;5023241;28;20033;-83
2023/07/27 06:40:59;;;;;;;11.30;8.50;;;14.80;99.90;;;;;;5038093;28;20093;-84
2023/07/27 06:43:25;;;;;;;11.80;8.18;;;14.80;99.90;;;;;;5064386;28;20032;-83
2023/07/27 06:45:51;;;;;;;13.52;8.65;;;14.80;99.90;;;;;;5007554;28;20135;-84
2023/07/27 06:48:17;;;;;;;11.70;7.95;;;14.90;99.90;;;;;;5022922;28;20038;-83
2023/07/27 06:50:43;;;;;;;10.95;7.85;;;14.90;99.90;;;;;;5054966;28;20032;-83
2023/07/27 06:53:09;;;;;;;11.25;7.03;;;14.90;99.90;;;;;;5039260;28;20039;-83
2023/07/27 06:55:38;;;;;;;9.35;6.43;;;15.00;99.90;;;;;;5038771;28;20064;-82
2023/07/27 06:58:04;;;;;;;9.27;7.13;;;15.00;99.90;;;;;;4998089;28;20796;-83
2023/07/27 07:00:31;;;;;;;9.90;7.03;;;15.00;99.90;;;;;;5041666;28;20084;-83
2023/07/27 07:02:58;;;;;;;11.15;6.95;;;15.10;99.90;;;;;;5045864;28;20074;-83
2023/07/27 07:05:24;;;;;;;9.65;6.63;;;15.10;99.90;;;;;;5052461;28;20036;-84
2023/07/27 07:07:53;;;;;;;10.18;7.07;;;15.10;99.90;;;;;;5043029;28;20032;-84
2023/07/27 07:10:20;;;;;;;12.35;6.78;;;15.20;99.90;;;;;;5058180;28;20034;-84
2023/07/27 07:12:46;;;;;;;9.32;6.70;;;15.30;99.90;;;;;;5041859;28;20330;-85
2023/07/27 07:15:12;;;;;;;11.27;6.80;;;15.30;99.90;;;;;;5036416;28;20036;-83
2023/07/27 07:17:38;;;;;;;8.77;6.20;;;15.30;99.90;;;;;;5019509;28;20033;-83
2023/07/27 07:20:08;;;;;;;13.80;6.85;;;15.40;99.90;;;;;;5039798;28;20040;-84
2023/07/27 07:22:36;;;;;;;8.90;6.10;;;15.40;99.90;;;;;;5054550;28;20032;-82
2023/07/27 07:25:02;;;;;;;9.95;6.63;;;15.40;99.90;;;;;;5072056;28;20056;-82
2023/07/27 07:27:28;;;;;;;9.43;6.40;;;15.50;99.90;;;;;;5005529;28;20339;-84
2023/07/27 07:29:54;;;;;;;9.05;6.40;;;15.50;99.90;;;;;;5037222;28;20043;-83
2023/07/27 07:32:20;;;;;;;9.77;6.03;;;15.50;99.90;;;;;;5021831;28;20036;-82
2023/07/27 07:34:47;;;;;;;8.35;5.78;;;15.50;99.90;;;;;;5054151;28;20024;-82
2023/07/27 07:37:13;;;;;;;8.43;5.75;;;15.50;99.90;;;;;;5037941;28;20114;-83
2023/07/27 07:39:39;;;;;;;8.38;6.20;;;15.60;99.90;;;;;;5009465;28;20044;-83
2023/07/27 07:42:05;;;;;;;10.18;6.13;;;15.60;99.90;;;;;;5032691;28;20037;-83
2023/07/27 07:44:31;;;;;;;9.32;6.03;;;15.60;99.90;;;;;;5037964;28;20339;-83
2023/07/27 07:46:57;;;;;;;9.48;5.95;;;15.60;99.90;;;;;;4988782;28;20035;-82
2023/07/27 07:49:26;;;;;;;8.60;6.07;;;15.60;99.90;;;;;;5037706;28;20646;-83
2023/07/27 07:51:52;;;;;;;10.07;6.70;;;15.60;99.90;;;;;;5021477;28;20056;-83
2023/07/27 07:54:18;;;;;;;9.45;6.13;;;15.60;99.90;;;;;;5040595;28;20037;-82
2023/07/27 07:56:44;;;;;;;10.07;6.30;;;15.60;99.90;;;;;;5022064;28;20033;-82
2023/07/27 07:59:10;;;;;;;7.50;5.60;;;15.60;99.90;;;;;;5009614;28;20146;-83
2023/07/27 08:01:36;;;;;;;7.75;5.72;;;15.60;99.90;;;;;;5046120;28;20110;-83
2023/07/27 08:04:02;;;;;;;7.82;5.63;;;15.60;99.90;;;;;;5004611;28;20186;-83
2023/07/27 08:06:28;;;;;;;8.48;5.60;;;15.70;99.90;;;;;;5023405;28;20048;-83
2023/07/27 08:08:56;;;;;;;8.13;5.57;;;15.70;99.90;;;;;;5018446;28;20028;-83
2023/07/27 08:11:25;;;;;;;8.50;5.40;;;15.70;99.90;;;;;;5031144;28;20020;-83
2023/07/27 08:13:52;;;;;;;7.22;5.10;;;15.70;99.90;;;;;;5038816;28;20032;-84
2023/07/27 08:16:18;;;;;;;6.50;4.70;;;15.70;99.90;;;;;;5015942;28;20122;-84
2023/07/27 08:18:44;;;;;;;7.45;5.13;;;15.70;99.90;;;;;;5034445;28;20042;-84
2023/07/27 08:21:12;;;;;;;6.35;4.40;;;15.70;99.90;;;;;;5014367;28;20024;-85
2023/07/27 08:23:38;;;;;;;5.13;3.45;;;15.70;99.90;;;;;;5071219;28;20103;-83
2023/07/27 08:26:08;;;;;;;4.95;3.30;;;15.70;99.90;;;;;;5055088;28;20478;-83
2023/07/27 08:28:34;;;;;;;5.22;3.67;;;15.80;99.90;;;;;;5064551;28;20103;-83
2023/07/27 08:31:03;;;;;;;6.13;3.80;;;15.80;99.90;;;;;;5059060;28;20028;-83
2023/07/27 08:33:29;;;;;;;5.60;3.35;;;15.70;99.90;;;;;;5036935;28;20386;-83
2023/07/27 08:35:57;;;;;;;5.55;3.58;;;15.70;99.90;;;;;;5043861;28;20059;-82
2023/07/27 08:38:23;;;;;;;6.22;3.80;;;15.70;99.90;;;;;;5038399;28;20097;-83
2023/07/27 08:40:57;;;;;;;5.85;3.72;;;15.70;99.90;;;;;;5073885;28;20120;-83
2023/07/27 08:43:24;;;;;;;6.80;4.40;;;15.80;99.90;;;;;;5064844;28;20028;-83
2023/07/27 08:45:51;;;;;;;5.60;3.83;;;15.80;99.90;;;;;;5073943;28;20443;-84
2023/07/27 08:48:18;;;;;;;5.55;2.95;;;15.80;99.90;;;;;;5053493;28;20292;-83
2023/07/27 08:50:46;;;;;;;5.28;3.40;;;15.80;99.90;;;;;;5086500;28;20036;-83
2023/07/27 08:53:12;;;;;;;4.03;2.85;;;15.80;99.90;;;;;;5063564;28;20064;-84
2023/07/27 08:55:40;;;;;;;5.53;3.30;;;15.80;99.90;;;;;;5014981;28;20052;-83
2023/07/27 08:58:10;;;;;;;4.43;3.13;;;15.90;99.90;;;;;;5075981;28;20028;-83
2023/07/27 09:00:39;;;;;;;6.00;3.47;;;15.90;99.90;;;;;;5069596;28;20580;-85
2023/07/27 09:03:07;;;;;;;6.43;4.47;;;15.80;99.90;;;;;;5061404;28;20315;-85
2023/07/27 09:05:44;;;;;;;7.35;4.53;;;15.90;99.90;;;;;;5046495;28;20063;-87
2023/07/27 09:08:13;;;;;;;6.82;4.88;;;15.90;99.90;;;;;;5038402;28;20086;-85
2023/07/27 09:10:44;;;;;;;5.85;4.03;;;15.90;99.90;;;;;;5047243;28;20059;-85
2023/07/27 09:13:10;;;;;;;5.85;4.00;;;15.90;99.90;;;;;;5063805;28;20081;-85
2023/07/27 09:15:40;;;;;;;5.25;3.85;;;15.90;99.90;;;;;;5037934;28;20028;-88
2023/07/27 09:18:11;;;;;;;6.38;4.00;;;15.90;99.90;;;;;;5077676;28;20016;-85
2023/07/27 09:20:39;;;;;;;6.32;4.68;;;15.90;99.90;;;;;;5044666;28;20097;-85
2023/07/27 09:23:05;;;;;;;6.72;4.70;;;16.00;99.90;;;;;;5038584;28;20033;-85
2023/07/27 09:25:31;;;;;;;8.32;4.60;;;15.90;99.90;;;;;;5037662;28;20379;-85
2023/07/27 09:27:57;;;;;;;7.32;4.60;;;16.00;99.90;;;;;;5030089;28;20032;-85
2023/07/27 09:30:24;;;;;;;9.02;4.93;;;16.00;99.90;;;;;;5045913;28;20335;-85
2023/07/27 09:32:51;;;;;;;6.43;5.00;;;16.10;99.90;;;;;;5053962;28;20039;-85
2023/07/27 09:35:20;;;;;;;7.80;5.07;;;16.10;99.90;;;;;;5062342;28;20028;-85
2023/07/27 09:37:51;;;;;;;8.18;5.15;;;16.10;99.90;;;;;;5078519;28;20169;-85
2023/07/27 09:40:20;;;;;;;7.47;4.82;;;16.20;99.90;;;;;;5062279;28;20118;-84
2023/07/27 09:42:46;;;;;;;5.78;4.03;;;16.20;99.90;;;;;;5044941;28;20084;-85
2023/07/27 09:45:13;;;;;;;5.65;4.18;;;16.20;99.90;;;;;;5089004;28;20032;-85
2023/07/27 09:47:40;;;;;;;5.90;4.32;;;16.30;99.90;;;;;;5063242;28;20047;-85
2023/07/27 09:50:07;;;;;;;6.15;4.97;;;16.30;99.90;;;;;;5025817;28;20037;-85
2023/07/27 09:52:36;;;;;;;7.43;5.10;;;16.30;99.90;;;;;;5059686;28;20040;-85
2023/07/27 09:55:02;;;;;;;7.07;4.82;;;16.30;99.90;;;;;;5073315;28;20071;-86
2023/07/27 09:57:28;;;;;;;6.40;4.50;;;16.30;99.90;;;;;;5045241;28;20312;-87
2023/07/27 09:59:54;;;;;;;6.57;4.90;;;16.30;99.90;;;;;;5022131;28;20032;-86
2023/07/27 10:02:21;;;;;;;6.93;4.88;;;16.40;99.90;;;;;;5042197;28;20028;-85
2023/07/27 10:04:51;;;;;;;7.13;5.47;;;16.40;99.90;;;;;;5030530;28;20032;-86
2023/07/27 10:07:22;;;;;;;7.38;5.78;;;16.50;99.90;;;;;;5026390;28;20147;-86
2023/07/27 10:10:08;;;;;;;7.90;5.95;;;16.50;99.90;;;;;;5026454;28;20415;-85
2023/07/27 10:12:34;;;;;;;7.85;5.45;;;16.50;99.90;;;;;;5051908;28;20423;-86
2023/07/27 10:15:27;;;;;;;8.85;4.95;;;16.50;99.90;;;;;;5009391;28;20089;-86
2023/07/27 10:17:59;;;;;;;5.80;4.68;;;16.60;99.90;;;;;;5076632;28;20422;-85
2023/07/27 10:20:28;;;;;;;5.70;4.80;;;16.70;99.90;;;;;;5077959;28;20032;-85
2023/07/27 10:23:28;;;;;;;6.53;4.50;;;16.70;99.90;;;;;;5048191;28;20028;-85
2023/07/27 10:25:54;;;;;;;5.78;4.70;;;16.80;99.90;;;;;;5075650;28;20411;-86
2023/07/27 10:28:35;;;;;;;6.40;4.97;;;16.80;99.90;;;;;;5025665;28;20024;-85
2023/07/27 10:31:23;;;;;;;7.50;5.40;;;16.90;99.90;;;;;;5025640;28;20131;-85
2023/07/27 10:34:07;;;;;;;5.97;4.72;;;16.90;99.90;;;;;;5041938;28;20266;-85
2023/07/27 10:37:03;;;;;;;6.90;4.60;;;16.90;99.90;;;;;;5026448;28;20169;-85
2023/07/27 10:39:34;;;;;;;5.85;4.80;;;17.00;99.90;;;;;;5049847;28;20039;-85
2023/07/27 10:42:02;;;;;;;7.72;5.57;;;17.00;99.90;;;;;;5064455;28;20104;-85
2023/07/27 10:45:10;;;;;;;6.50;4.93;;;17.00;99.90;;;;;;5056984;28;20033;-85
2023/07/27 10:48:16;;;;;;;5.90;4.70;;;17.00;99.90;;;;;;5040872;28;20028;-85
2023/07/27 10:50:42;;;;;;;6.43;5.07;;;17.10;99.90;;;;;;5039022;28;20123;-84
2023/07/27 10:53:09;;;;;;;6.90;5.65;;;17.10;99.90;;;;;;5056688;28;20039;-85
2023/07/27 10:55:40;;;;;;;6.53;5.57;;;17.10;99.90;;;;;;5044471;28;20143;-85
2023/07/27 10:58:07;;;;;;;6.30;5.65;;;17.20;99.90;;;;;;5043332;28;20036;-85
2023/07/27 11:00:37;;;;;;;6.72;5.40;;;17.20;99.90;;;;;;5077791;28;20036;-85
2023/07/27 11:03:03;;;;;;;6.90;5.85;;;17.30;99.90;;;;;;5048269;28;20037;-86
2023/07/27 11:05:29;;;;;;;9.18;6.03;;;17.40;99.90;;;;;;5035079;28;20219;-85
2023/07/27 11:08:02;;;;;;;6.78;5.10;;;17.40;99.90;;;;;;5041686;28;20459;-85
2023/07/27 11:10:32;;;;;;;7.05;6.03;;;17.40;99.90;;;;;;5057362;28;20021;-85
2023/07/27 11:12:58;;;;;;;8.85;5.88;;;17.50;99.90;;;;;;5049756;28;20123;-85
2023/07/27 11:15:25;;;;;;;9.70;6.47;;;17.50;99.90;;;;;;5010982;28;20403;-85
2023/07/27 11:17:53;;;;;;;7.20;6.15;;;17.60;99.90;;;;;;5055465;28;20056;-85
2023/07/27 11:20:22;;;;;;;6.80;5.80;;;17.60;99.90;;;;;;5049090;28;20058;-85
2023/07/27 11:22:51;;;;;;;6.75;6.05;;;17.60;99.90;;;;;;5076301;28;20029;-86
2023/07/27 11:25:17;;;;;;;7.32;6.63;;;17.60;99.90;;;;;;5057326;28;20099;-86
2023/07/27 11:27:48;;;;;;;7.28;6.38;;;17.70;99.90;;;;;;5044434;28;20020;-86
2023/07/27 11:30:19;;;;;;;7.80;6.70;;;17.70;99.90;;;;;;5036787;28;20123;-87
2023/07/27 11:32:57;;;;;;;6.90;6.20;;;17.80;99.90;;;;;;5042890;28;20036;-86
2023/07/27 11:35:23;;;;;;;7.13;6.38;;;17.80;99.90;;;;;;5059286;28;20032;-86
2023/07/27 11:37:52;;;;;;;6.13;5.20;;;17.90;99.90;;;;;;5043828;28;20070;-86
2023/07/27 11:40:19;;;;;;;6.07;5.47;;;17.90;99.90;;;;;;5016306;28;20048;-86
2023/07/27 11:42:45;;;;;;;5.82;5.10;;;18.00;99.90;;;;;;5021780;28;20041;-87
2023/07/27 11:45:12;;;;;;;6.30;4.78;;;18.00;99.90;;;;;;5040833;28;20036;-85
2023/07/27 11:47:39;;;;;;;4.70;4.13;;;18.00;99.90;;;;;;5061863;28;20086;-86
2023/07/27 11:50:10;;;;;;;5.22;4.38;;;18.10;99.90;;;;;;5068667;28;20466;-86
2023/07/27 11:52:40;;;;;;;5.07;4.22;;;18.20;99.90;;;;;;5038810;28;20131;-85
2023/07/27 11:55:07;;;;;;;6.65;3.58;;;18.30;99.90;;;;;;5061907;28;20052;-85
2023/07/27 11:57:33;;;;;;;4.20;3.42;;;18.30;99.90;;;;;;5067143;28;20327;-84
2023/07/27 12:00:04;;;;;;;4.03;3.25;;;18.40;99.90;;;;;;5075863;28;20124;-84
2023/07/27 12:02:56;;;;;;;4.28;3.65;;;18.50;99.90;;;;;;5062787;28;20029;-84
2023/07/27 12:05:23;;;;;;;4.28;3.38;;;18.60;99.90;;;;;;5035044;28;20042;-84
2023/07/27 12:07:52;;;;;;;3.80;3.00;;;18.60;99.90;;;;;;5056621;28;20428;-85
2023/07/27 12:10:20;;;;;;;4.20;3.10;;;18.70;99.90;;;;;;5039261;28;20041;-85
2023/07/27 12:13:07;;;;;;;5.60;3.08;;;18.70;99.90;;;;;;5059125;28;20086;-84
2023/07/27 12:15:35;;;;;;;3.30;2.45;;;18.70;99.90;;;;;;5058810;28;20036;-85
2023/07/27 12:18:03;;;;;;;4.10;2.78;;;18.70;99.90;;;;;;5042862;28;20090;-84
2023/07/27 12:20:32;;;;;;;3.33;2.60;;;18.70;99.90;;;;;;5058541;28;20140;-84
2023/07/27 12:22:58;;;;;;;3.92;3.00;;;18.70;99.90;;;;;;5059031;28;20032;-85
2023/07/27 12:25:28;;;;;;;3.78;2.60;;;18.70;99.90;;;;;;5026050;28;20120;-85
2023/07/27 12:27:55;;;;;;;4.88;2.50;;;18.70;99.90;;;;;;5057821;28;20083;-85
2023/07/27 12:30:22;;;;;;;2.58;1.90;;;18.70;99.90;;;;;;5027355;28;20044;-84
2023/07/27 12:32:49;;;;;;;3.80;2.20;;;18.70;99.90;;;;;;5039053;28;20037;-85
2023/07/27 12:35:16;;;;;;;2.53;1.95;;;18.80;99.90;;;;;;5022163;28;20037;-85
2023/07/27 12:37:51;;;;;;;2.15;1.75;;;18.80;99.90;;;;;;5006587;28;20305;-86
2023/07/27 12:40:21;;;;;;;3.08;1.33;;;18.80;99.90;;;;;;5023941;28;20087;-85
2023/07/27 12:42:47;;;;;;;1.45;1.00;;;18.80;99.90;;;;;;5006234;28;20133;-85
2023/07/27 12:45:13;;;;;;;2.65;1.00;;;18.80;99.90;;;;;;5020230;28;20064;-84